This is the latest recevied weather packets stored in our database for station/object OK1ALX-6. If no packets are shown the sender has not sent any weather packets the latest 10 day(s).
| Time | Temp. | Humidity | Pressure | Rain* | Wind** | Luminosity | Snow |
|---|---|---|---|---|---|---|---|
| 1777653003 | 20.56° C | 36% | 1029.8 hPa | 0 mm | - | 144 W/m² | - |
| 1777652403 | 20° C | 37% | 1029.8 hPa | 0 mm | - | 160 W/m² | - |
| 1777651803 | 20.56° C | 37% | 1030 hPa | 0 mm | - | 198 W/m² | - |
| 1777651204 | 20° C | 36% | 1029.9 hPa | 0 mm | - | 219 W/m² | - |
| 1777650603 | 20.56° C | 36% | 1030.1 hPa | 0 mm | - | 250 W/m² | - |
| 1777650003 | 20° C | 37% | 1030.1 hPa | 0 mm | - | 272 W/m² | - |
| 1777649403 | 20.56° C | 36% | 1030.1 hPa | 0 mm | - | 288 W/m² | - |
| 1777648803 | 20.56° C | 35% | 1030.1 hPa | 0 mm | - | 310 W/m² | - |
| 1777648203 | 21.11° C | 36% | 1030.1 hPa | 0 mm | - | 338 W/m² | - |
| 1777647607 | 20° C | 37% | 1030.5 hPa | 0 mm | - | 349 W/m² | - |
| 1777647004 | 20.56° C | 37% | 1030.2 hPa | 0 mm | - | 377 W/m² | - |
| 1777646403 | 20° C | 36% | 1030.7 hPa | 0 mm | - | 386 W/m² | - |
| 1777645804 | 20° C | 37% | 1030.7 hPa | 0 mm | - | 450 W/m² | - |
| 1777645203 | 20° C | 36% | 1030.7 hPa | 0 mm | - | 437 W/m² | - |
| 1777644612 | 19.44° C | 38% | 1031.1 hPa | 0 mm | - | 455 W/m² | - |
| 1777644003 | 20° C | 35% | 1031 hPa | 0 mm | - | 462 W/m² | - |
| 1777643403 | 19.44° C | 36% | 1031.2 hPa | 0 mm | - | 526 W/m² | - |
| 1777642803 | 19.44° C | 37% | 1031.3 hPa | 0 mm | - | 543 W/m² | - |
| 1777642203 | 19.44° C | 36% | 1031.3 hPa | 0 mm | - | 556 W/m² | - |
| 1777641604 | 19.44° C | 37% | 1031.5 hPa | 0 mm | - | 580 W/m² | - |
| 1777641003 | 19.44° C | 35% | 1031.4 hPa | 0 mm | - | 603 W/m² | - |
| 1777640404 | 18.33° C | 36% | 1031.7 hPa | 0 mm | - | 606 W/m² | - |
| 1777639803 | 18.33° C | 36% | 1031.9 hPa | 0 mm | - | 549 W/m² | - |
| 1777639203 | 18.33° C | 36% | 1032.1 hPa | 0 mm | - | 600 W/m² | - |
| 1777638603 | 19.44° C | 35% | 1031.9 hPa | 0 mm | - | 550 W/m² | - |
* Rain latest hour (hover to see other rain measurements)
** Current wind speed in m/s (hover to see current wind gust speed)